createdAt,value
2023-04-15T00:01:53.432Z,10.17
2023-04-15T00:04:20.592Z,11.83
2023-04-15T00:06:54.817Z,13.87
2023-04-15T00:09:21.956Z,10.93
2023-04-15T00:11:50.250Z,10.73
2023-04-15T00:14:17.578Z,11.13
2023-04-15T00:16:44.185Z,9.93
2023-04-15T00:19:11.182Z,11.17
2023-04-15T00:21:37.728Z,13.70
2023-04-15T00:24:04.459Z,12.33
2023-04-15T00:26:31.065Z,13.73
2023-04-15T00:28:58.153Z,14.03
2023-04-15T00:31:25.138Z,15.47
2023-04-15T00:33:52.544Z,15.77
2023-04-15T00:36:19.422Z,13.50
2023-04-15T00:38:47.542Z,11.33
2023-04-15T00:41:14.157Z,11.67
2023-04-15T00:43:40.831Z,12.63
2023-04-15T00:46:07.837Z,13.30
2023-04-15T00:48:35.201Z,11.33
2023-04-15T00:51:02.321Z,12.18
2023-04-15T00:53:28.865Z,10.93
2023-04-15T00:55:55.972Z,11.37
2023-04-15T00:58:22.997Z,10.13
2023-04-15T01:00:54.114Z,10.80
2023-04-15T01:03:21.141Z,12.27
2023-04-15T01:05:47.995Z,10.55
2023-04-15T01:08:14.818Z,10.77
2023-04-15T01:10:42.715Z,12.93
2023-04-15T01:13:09.307Z,12.00
2023-04-15T01:15:36.410Z,11.13
2023-04-15T01:18:03.450Z,12.07
2023-04-15T01:20:30.248Z,10.70
2023-04-15T01:22:56.903Z,12.02
2023-04-15T01:25:33.910Z,9.52
2023-04-15T01:28:01.086Z,12.15
2023-04-15T01:30:27.713Z,10.52
2023-04-15T01:32:54.722Z,10.88
2023-04-15T01:35:21.524Z,12.35
2023-04-15T01:37:49.273Z,11.43
2023-04-15T01:40:16.527Z,12.43
2023-04-15T01:42:43.093Z,13.33
2023-04-15T01:45:10.404Z,10.70
2023-04-15T01:47:36.956Z,11.63
2023-04-15T01:50:03.900Z,12.93
2023-04-15T01:52:30.484Z,12.40
2023-04-15T01:54:57.128Z,11.33
2023-04-15T01:57:23.726Z,13.80
2023-04-15T01:59:50.927Z,12.97
2023-04-15T02:02:18.299Z,12.85
2023-04-15T02:04:45.236Z,15.67
2023-04-15T02:07:12.134Z,13.32
2023-04-15T02:09:39.233Z,15.33
2023-04-15T02:12:06.085Z,16.08
2023-04-15T02:14:33.442Z,15.50
2023-04-15T02:17:07.022Z,15.47
2023-04-15T02:19:34.384Z,16.00
2023-04-15T02:22:02.292Z,17.87
2023-04-15T02:24:30.581Z,15.63
2023-04-15T02:26:57.390Z,15.45
2023-04-15T02:29:24.609Z,14.90
2023-04-15T02:31:51.246Z,16.73
2023-04-15T02:34:17.879Z,16.00
2023-04-15T02:36:44.481Z,15.70
2023-04-15T02:39:12.695Z,16.23
2023-04-15T02:41:39.546Z,15.57
2023-04-15T02:44:07.098Z,17.25
2023-04-15T02:46:33.634Z,15.82
2023-04-15T02:49:00.688Z,17.52
2023-04-15T02:51:32.167Z,16.48
2023-04-15T02:53:58.754Z,16.13
2023-04-15T02:56:25.581Z,14.27
2023-04-15T02:58:52.235Z,15.57
2023-04-15T03:01:20.656Z,12.57
2023-04-15T03:03:47.470Z,13.05
2023-04-15T03:06:14.352Z,13.07
2023-04-15T03:08:41.501Z,13.45
2023-04-15T03:11:08.410Z,15.13
2023-04-15T03:13:35.070Z,13.45
2023-04-15T03:16:01.878Z,13.25
2023-04-15T03:18:29.263Z,13.38
2023-04-15T03:20:55.822Z,12.48
2023-04-15T03:23:23.216Z,12.13
2023-04-15T03:25:49.964Z,12.03
2023-04-15T03:28:16.826Z,11.80
2023-04-15T03:30:43.383Z,12.45
2023-04-15T03:33:10.113Z,12.35
2023-04-15T03:35:36.677Z,12.32
2023-04-15T03:38:03.558Z,14.15
2023-04-15T03:40:30.342Z,12.90
2023-04-15T03:42:57.330Z,12.43
2023-04-15T03:45:23.991Z,15.35
2023-04-15T03:47:50.817Z,14.95
2023-04-15T03:50:17.514Z,14.75
2023-04-15T03:52:44.939Z,16.85
2023-04-15T03:55:12.183Z,15.90
2023-04-15T03:57:39.609Z,15.48
2023-04-15T04:00:07.468Z,16.30
2023-04-15T04:02:34.173Z,15.50
2023-04-15T04:05:01.008Z,20.60
2023-04-15T04:07:27.684Z,17.02
2023-04-15T04:09:54.363Z,16.33
2023-04-15T04:12:21.445Z,16.25
2023-04-15T04:14:48.238Z,16.70
2023-04-15T04:17:15.061Z,15.88
2023-04-15T04:19:42.282Z,17.27
2023-04-15T04:22:08.874Z,18.15
2023-04-15T04:24:35.786Z,18.50
2023-04-15T04:27:03.356Z,19.33
2023-04-15T04:29:30.030Z,18.50
2023-04-15T04:31:56.588Z,20.35
2023-04-15T04:34:23.155Z,18.75
2023-04-15T04:36:49.728Z,20.10
2023-04-15T04:39:16.271Z,19.02
2023-04-15T04:41:43.682Z,20.90
2023-04-15T04:44:10.217Z,21.30
2023-04-15T04:46:36.995Z,21.95
2023-04-15T04:49:04.183Z,20.92
2023-04-15T04:51:31.729Z,21.98
2023-04-15T04:53:58.708Z,21.13
2023-04-15T04:56:25.650Z,24.35
2023-04-15T04:58:53.164Z,21.83
2023-04-15T05:01:19.955Z,20.33
2023-04-15T05:03:46.731Z,23.05
2023-04-15T05:06:13.328Z,22.63
2023-04-15T05:08:41.234Z,20.25
2023-04-15T05:11:08.681Z,21.02
2023-04-15T05:13:38.732Z,23.02
2023-04-15T05:16:06.372Z,23.67
2023-04-15T05:18:33.573Z,24.52
2023-04-15T05:21:00.359Z,22.75
2023-04-15T05:23:27.483Z,21.42
2023-04-15T05:25:54.322Z,20.77
2023-04-15T05:28:21.153Z,19.55
2023-04-15T05:30:47.989Z,21.90
2023-04-15T05:33:14.763Z,21.98
2023-04-15T05:35:41.400Z,21.58
2023-04-15T05:38:08.196Z,20.67
2023-04-15T05:40:34.804Z,20.25
2023-04-15T05:43:02.633Z,20.80
2023-04-15T05:45:29.243Z,20.92
2023-04-15T05:47:56.145Z,20.38
2023-04-15T05:50:22.684Z,21.52
2023-04-15T05:52:49.412Z,21.48
2023-04-15T05:55:16.089Z,19.95
2023-04-15T05:57:42.665Z,20.67
2023-04-15T06:00:10.264Z,21.52
2023-04-15T06:02:37.110Z,20.20
2023-04-15T06:05:04.319Z,21.23
2023-04-15T06:07:31.133Z,22.70
2023-04-15T06:09:57.698Z,21.80
2023-04-15T06:12:24.276Z,21.20
2023-04-15T06:14:51.700Z,20.95
2023-04-15T06:17:19.709Z,21.25
2023-04-15T06:19:46.424Z,20.92
2023-04-15T06:22:12.976Z,19.77
2023-04-15T06:24:39.984Z,18.83
2023-04-15T06:27:07.185Z,18.55
2023-04-15T06:29:33.752Z,21.08
2023-04-15T06:32:00.399Z,21.20
2023-04-15T06:34:27.354Z,18.25
2023-04-15T06:36:54.695Z,20.02
2023-04-15T06:39:21.332Z,19.67
2023-04-15T06:41:48.828Z,19.38
2023-04-15T06:44:15.836Z,19.10
2023-04-15T06:46:42.369Z,19.92
2023-04-15T06:49:08.974Z,19.90
2023-04-15T06:51:36.144Z,18.67
2023-04-15T06:54:05.855Z,16.75
2023-04-15T06:56:33.499Z,18.20
2023-04-15T06:59:00.225Z,18.05
2023-04-15T07:01:27.550Z,17.77
2023-04-15T07:03:54.253Z,18.05
2023-04-15T07:06:21.845Z,17.67
2023-04-15T07:08:48.757Z,18.73
2023-04-15T07:11:15.348Z,18.80
2023-04-15T07:13:41.912Z,17.38
2023-04-15T07:16:08.850Z,18.58
2023-04-15T07:18:35.435Z,18.38
2023-04-15T07:21:02.655Z,16.20
2023-04-15T07:23:29.524Z,15.60
2023-04-15T07:25:57.334Z,16.15
2023-04-15T07:28:23.960Z,16.40
2023-04-15T07:30:50.934Z,14.18
2023-04-15T07:33:17.493Z,14.60
2023-04-15T07:35:45.065Z,14.00
2023-04-15T07:38:13.484Z,13.55
2023-04-15T07:40:40.474Z,12.75
2023-04-15T07:43:07.376Z,13.75
2023-04-15T07:45:34.509Z,12.52
2023-04-15T07:48:02.040Z,12.75
2023-04-15T07:50:29.254Z,12.80
2023-04-15T07:52:56.229Z,11.75
2023-04-15T07:55:23.440Z,12.00
2023-04-15T07:57:50.458Z,12.15
2023-04-15T08:00:17.354Z,12.38
2023-04-15T08:02:44.326Z,12.32
2023-04-15T08:05:11.322Z,11.52
2023-04-15T08:07:38.454Z,10.63
2023-04-15T08:10:05.961Z,11.30
2023-04-15T08:12:32.754Z,10.98
2023-04-15T08:14:59.537Z,11.23
2023-04-15T08:17:26.388Z,10.30
2023-04-15T08:19:53.808Z,11.07
2023-04-15T08:22:21.300Z,10.95
2023-04-15T08:24:49.192Z,11.25
2023-04-15T08:27:15.906Z,10.02
2023-04-15T08:29:42.752Z,9.70
2023-04-15T08:32:09.620Z,8.77
2023-04-15T08:34:36.990Z,9.07
2023-04-15T08:37:07.333Z,9.43
2023-04-15T08:39:40.147Z,8.60
2023-04-15T08:42:16.474Z,8.18
2023-04-15T08:44:44.636Z,8.23
2023-04-15T08:47:14.770Z,8.82
2023-04-15T08:49:42.943Z,8.13
2023-04-15T08:52:10.226Z,8.25
2023-04-15T08:54:37.572Z,8.98
2023-04-15T08:57:04.580Z,8.60
2023-04-15T08:59:31.927Z,8.82
2023-04-15T09:01:59.031Z,8.68
2023-04-15T09:04:25.863Z,8.63
2023-04-15T09:06:54.766Z,7.68
2023-04-15T09:09:23.656Z,7.43
2023-04-15T09:11:52.661Z,8.40
2023-04-15T09:14:19.898Z,7.07
2023-04-15T09:17:05.316Z,6.95
2023-04-15T09:19:34.526Z,6.30
2023-04-15T09:22:03.507Z,6.60
2023-04-15T09:24:42.736Z,5.85
2023-04-15T09:27:10.123Z,6.88
2023-04-15T09:29:37.722Z,6.55
2023-04-15T09:32:14.169Z,5.97
2023-04-15T09:34:40.993Z,5.85
2023-04-15T09:37:08.184Z,5.85
2023-04-15T09:39:52.110Z,5.40
2023-04-15T09:42:27.331Z,5.53
2023-04-15T09:44:54.194Z,5.45
2023-04-15T09:47:29.335Z,5.72
2023-04-15T09:49:57.743Z,5.80
2023-04-15T09:52:24.592Z,5.78
2023-04-15T09:54:55.183Z,6.20
2023-04-15T09:57:21.965Z,5.82
2023-04-15T09:59:48.779Z,6.53
2023-04-15T10:02:18.611Z,6.15
2023-04-15T10:04:45.790Z,7.30
2023-04-15T10:07:13.055Z,7.00
2023-04-15T10:09:40.067Z,7.53
2023-04-15T10:12:07.396Z,6.78
2023-04-15T10:14:36.348Z,7.53
2023-04-15T10:17:04.383Z,8.00
2023-04-15T10:19:37.298Z,9.63
2023-04-15T10:22:04.759Z,8.70
2023-04-15T10:24:32.246Z,8.05
2023-04-15T10:27:00.279Z,9.00
2023-04-15T10:29:27.756Z,9.35
2023-04-15T10:31:58.953Z,8.90
2023-04-15T10:34:26.054Z,10.57
2023-04-15T10:36:57.365Z,9.63
2023-04-15T10:39:33.897Z,9.05
2023-04-15T10:42:08.761Z,11.02
2023-04-15T10:44:39.670Z,10.60
2023-04-15T10:47:21.839Z,11.02
2023-04-15T10:49:57.949Z,11.80
2023-04-15T10:52:27.479Z,12.45
2023-04-15T10:55:08.252Z,11.73
2023-04-15T10:57:38.346Z,13.57
2023-04-15T11:00:15.475Z,12.93
2023-04-15T11:02:44.988Z,14.00
2023-04-15T11:05:12.432Z,15.82
2023-04-15T11:07:49.271Z,16.80
2023-04-15T11:10:20.782Z,17.08
2023-04-15T11:12:51.156Z,18.30
2023-04-15T11:15:31.149Z,18.38
2023-04-15T11:17:59.206Z,18.42
2023-04-15T11:20:26.268Z,19.63
2023-04-15T11:23:14.462Z,19.98
2023-04-15T11:25:41.720Z,20.15
2023-04-15T11:28:08.682Z,18.83
2023-04-15T11:30:37.730Z,20.42
2023-04-15T11:33:06.852Z,23.45
2023-04-15T11:35:33.514Z,20.05
2023-04-15T11:38:04.284Z,21.90
2023-04-15T11:40:33.341Z,21.95
2023-04-15T11:43:21.793Z,25.73
2023-04-15T11:45:58.735Z,25.88
2023-04-15T11:48:34.855Z,24.70
2023-04-15T11:51:03.169Z,25.67
2023-04-15T11:53:49.463Z,25.42
2023-04-15T11:56:22.977Z,26.20
2023-04-15T11:58:53.826Z,28.90
2023-04-15T12:01:20.538Z,24.38
2023-04-15T12:03:48.089Z,26.63
2023-04-15T12:06:25.291Z,24.60
2023-04-15T12:09:09.863Z,27.13
2023-04-15T12:11:48.255Z,27.95
2023-04-15T12:14:33.439Z,28.55
2023-04-15T12:17:01.336Z,26.95
2023-04-15T12:19:31.781Z,27.00
2023-04-15T12:22:01.492Z,28.77
2023-04-15T12:24:30.855Z,28.23
2023-04-15T12:26:58.110Z,30.30
2023-04-15T12:29:30.243Z,28.17
2023-04-15T12:31:58.953Z,25.58
2023-04-15T12:34:37.744Z,24.38
2023-04-15T12:37:06.408Z,26.55
2023-04-15T12:39:36.551Z,23.77
2023-04-15T12:42:04.331Z,25.95
2023-04-15T12:44:30.976Z,25.27
2023-04-15T12:46:57.994Z,24.17
2023-04-15T12:49:24.689Z,23.38
2023-04-15T12:51:53.690Z,23.35
2023-04-15T12:54:20.824Z,23.83
2023-04-15T12:56:48.911Z,24.65
2023-04-15T12:59:17.749Z,24.90
2023-04-15T13:01:45.055Z,25.00
2023-04-15T13:04:11.757Z,23.40
2023-04-15T13:06:38.474Z,24.88
2023-04-15T13:09:06.056Z,21.95
2023-04-15T13:11:33.849Z,19.25
2023-04-15T13:14:06.104Z,16.75
2023-04-15T13:16:33.828Z,15.95
2023-04-15T13:19:01.747Z,16.00
2023-04-15T13:21:28.563Z,17.83
2023-04-15T13:23:55.753Z,16.70
2023-04-15T13:26:22.790Z,15.55
2023-04-15T13:28:49.391Z,16.40
2023-04-15T13:31:16.042Z,17.75
2023-04-15T13:33:43.223Z,17.08
2023-04-15T13:36:09.815Z,16.98
2023-04-15T13:38:37.171Z,17.17
2023-04-15T13:41:03.838Z,18.08
2023-04-15T13:43:30.672Z,16.38
2023-04-15T13:45:57.324Z,17.85
2023-04-15T13:48:23.961Z,19.15
2023-04-15T13:50:50.571Z,19.27
2023-04-15T13:53:17.691Z,19.20
2023-04-15T13:55:44.503Z,17.65
2023-04-15T13:58:11.799Z,19.40
2023-04-15T14:00:38.479Z,18.27
2023-04-15T14:03:05.271Z,16.60
2023-04-15T14:05:32.621Z,15.85
2023-04-15T14:08:00.416Z,15.02
2023-04-15T14:10:27.066Z,15.65
2023-04-15T14:12:54.237Z,16.38
2023-04-15T14:15:21.393Z,16.48
2023-04-15T14:17:48.727Z,16.85
2023-04-15T14:20:17.191Z,16.08
2023-04-15T14:22:44.106Z,16.33
2023-04-15T14:25:17.302Z,15.90
2023-04-15T14:27:50.148Z,15.43
2023-04-15T14:30:17.476Z,15.70
2023-04-15T14:32:44.628Z,15.63
2023-04-15T14:35:11.508Z,13.50
2023-04-15T14:37:38.370Z,13.98
2023-04-15T14:40:06.011Z,14.40
2023-04-15T14:42:32.882Z,14.32
2023-04-15T14:44:59.516Z,14.15
2023-04-15T14:47:26.396Z,15.00
2023-04-15T14:49:53.055Z,15.88
2023-04-15T14:52:19.614Z,15.48
2023-04-15T14:54:46.144Z,16.05
2023-04-15T14:57:12.712Z,15.35
2023-04-15T14:59:39.346Z,16.52
2023-04-15T15:02:06.106Z,16.23
2023-04-15T15:04:34.136Z,16.70
2023-04-15T15:07:00.751Z,16.52
2023-04-15T15:09:27.504Z,15.32
2023-04-15T15:11:54.057Z,16.13
2023-04-15T15:14:20.618Z,15.07
2023-04-15T15:16:47.186Z,15.20
2023-04-15T15:19:13.923Z,15.98
2023-04-15T15:21:40.660Z,14.38
2023-04-15T15:24:07.472Z,14.13
2023-04-15T15:26:34.521Z,11.65
2023-04-15T15:29:01.189Z,10.57
2023-04-15T15:31:27.774Z,8.68
2023-04-15T15:33:54.339Z,10.38
2023-04-15T15:36:27.122Z,8.85
2023-04-15T15:38:53.879Z,11.18
2023-04-15T15:41:21.173Z,9.50
2023-04-15T15:43:47.699Z,12.50
2023-04-15T15:46:14.613Z,10.38
2023-04-15T15:48:41.413Z,10.60
2023-04-15T15:51:08.350Z,10.98
2023-04-15T15:53:36.786Z,10.27
2023-04-15T15:56:04.476Z,10.80
2023-04-15T15:58:31.585Z,10.43
2023-04-15T16:00:59.739Z,10.73
2023-04-15T16:03:27.708Z,10.63
2023-04-15T16:05:54.444Z,10.70
2023-04-15T16:08:21.245Z,9.98
2023-04-15T16:10:57.239Z,11.85
2023-04-15T16:13:24.276Z,11.75
2023-04-15T16:16:15.213Z,10.90
2023-04-15T16:18:45.041Z,12.30
2023-04-15T16:21:12.601Z,13.77
2023-04-15T16:23:41.390Z,12.32
2023-04-15T16:26:08.587Z,12.57
2023-04-15T16:28:35.680Z,12.75
2023-04-15T16:31:06.113Z,12.70
2023-04-15T16:34:22.004Z,13.15
2023-04-15T16:36:49.001Z,16.60
2023-04-15T16:39:16.366Z,14.52
2023-04-15T16:41:43.414Z,18.08
2023-04-15T16:44:47.839Z,15.32
2023-04-15T16:47:14.990Z,14.52
2023-04-15T16:49:42.426Z,16.02
2023-04-15T16:52:10.342Z,14.68
2023-04-15T16:54:41.454Z,16.75
2023-04-15T17:00:32.528Z,14.63
2023-04-15T17:03:04.239Z,16.08
2023-04-15T17:05:43.786Z,13.57
2023-04-15T17:08:14.514Z,16.35
2023-04-15T17:10:41.503Z,16.30
2023-04-15T17:13:08.724Z,14.82
2023-04-15T17:15:35.421Z,15.48
2023-04-15T17:18:02.228Z,14.50
2023-04-15T17:20:31.232Z,14.27
2023-04-15T17:22:58.540Z,14.65
2023-04-15T17:25:25.193Z,14.23
2023-04-15T17:27:51.854Z,14.38
2023-04-15T17:30:19.543Z,15.60
2023-04-15T17:32:46.160Z,15.63
2023-04-15T17:35:23.386Z,14.23
2023-04-15T17:37:50.025Z,14.90
2023-04-15T17:40:17.434Z,15.43
2023-04-15T17:42:44.012Z,15.15
2023-04-15T17:45:11.290Z,14.48
2023-04-15T17:47:37.984Z,15.73
2023-04-15T17:50:05.086Z,16.77
2023-04-15T17:52:32.003Z,15.32
2023-04-15T17:54:58.821Z,13.95
2023-04-15T17:57:25.629Z,15.55
2023-04-15T17:59:52.255Z,15.88
2023-04-15T18:02:19.038Z,15.43
2023-04-15T18:04:45.822Z,15.27
2023-04-15T18:07:12.513Z,14.45
2023-04-15T18:09:39.812Z,15.40
2023-04-15T18:12:09.186Z,14.27
2023-04-15T18:14:36.235Z,14.27
2023-04-15T18:17:03.703Z,13.93
2023-04-15T18:19:30.958Z,15.07
2023-04-15T18:21:59.819Z,15.52
2023-04-15T18:24:26.845Z,14.77
2023-04-15T18:26:54.000Z,14.98
2023-04-15T18:29:20.830Z,15.10
2023-04-15T18:31:47.541Z,15.75
2023-04-15T18:34:14.241Z,14.57
2023-04-15T18:36:41.265Z,15.32
2023-04-15T18:39:08.813Z,15.52
2023-04-15T18:41:35.479Z,15.63
2023-04-15T18:44:02.032Z,14.63
2023-04-15T18:46:29.180Z,14.63
2023-04-15T18:48:55.833Z,17.73
2023-04-15T18:51:23.073Z,16.95
2023-04-15T18:53:49.685Z,15.93
2023-04-15T18:56:16.857Z,14.40
2023-04-15T18:59:08.893Z,14.20
2023-04-15T19:01:32.001Z,14.23
2023-04-15T19:03:58.792Z,13.93
2023-04-15T19:06:27.029Z,14.45
2023-04-15T19:08:53.648Z,14.02
2023-04-15T19:11:20.308Z,14.30
2023-04-15T19:13:46.872Z,14.20
2023-04-15T19:16:14.234Z,14.65
2023-04-15T19:18:40.902Z,14.18
2023-04-15T19:21:08.121Z,14.35
2023-04-15T19:23:34.803Z,13.35
2023-04-15T19:26:01.594Z,14.88
2023-04-15T19:28:28.486Z,14.32
2023-04-15T19:30:55.620Z,14.80
2023-04-15T19:33:22.655Z,13.90
2023-04-15T19:35:50.171Z,16.38
2023-04-15T19:38:17.328Z,14.95
2023-04-15T19:40:44.161Z,15.13
2023-04-15T19:43:13.061Z,15.38
2023-04-15T19:45:40.276Z,16.77
2023-04-15T19:48:07.500Z,16.83
2023-04-15T19:50:34.172Z,16.20
2023-04-15T19:53:01.215Z,14.57
2023-04-15T19:55:27.934Z,16.73
2023-04-15T19:57:54.658Z,15.80
2023-04-15T20:00:21.976Z,17.42
2023-04-15T20:02:48.808Z,16.60
2023-04-15T20:05:15.659Z,17.05
2023-04-15T20:07:43.033Z,14.98
2023-04-15T20:10:14.008Z,15.65
2023-04-15T20:12:50.108Z,14.77
2023-04-15T20:15:19.407Z,14.30
2023-04-15T20:17:46.126Z,14.95
2023-04-15T20:20:13.025Z,15.13
2023-04-15T20:22:39.743Z,16.13
2023-04-15T20:25:07.570Z,15.73
2023-04-15T20:27:34.245Z,16.13
2023-04-15T20:30:01.344Z,16.30
2023-04-15T20:32:28.388Z,16.23
2023-04-15T20:34:55.997Z,16.80
2023-04-15T20:37:22.682Z,16.90
2023-04-15T20:39:49.558Z,16.63
2023-04-15T20:42:16.321Z,16.92
2023-04-15T20:44:43.119Z,18.77
2023-04-15T20:47:09.890Z,16.23
2023-04-15T20:49:38.400Z,17.75
2023-04-15T20:52:07.370Z,17.92
2023-04-15T20:54:34.376Z,16.85
2023-04-15T20:57:01.723Z,17.60
2023-04-15T20:59:30.834Z,18.02
2023-04-15T21:01:58.292Z,17.80
2023-04-15T21:04:25.063Z,17.23
2023-04-15T21:06:54.885Z,18.23
2023-04-15T21:09:21.715Z,17.05
2023-04-15T21:14:19.064Z,17.67
2023-04-15T21:16:46.058Z,17.13
2023-04-15T21:19:13.283Z,19.80
2023-04-15T21:21:40.088Z,17.77
2023-04-15T21:24:10.992Z,17.75
2023-04-15T21:26:37.683Z,16.35
2023-04-15T21:29:04.586Z,16.95
2023-04-15T21:31:31.656Z,17.25
2023-04-15T21:33:59.572Z,15.95
2023-04-15T21:36:26.898Z,18.13
2023-04-15T21:38:53.977Z,21.08
2023-04-15T21:41:20.765Z,18.80
2023-04-15T21:43:47.438Z,18.40
2023-04-15T21:46:21.985Z,16.25
2023-04-15T21:48:51.775Z,16.67
2023-04-15T21:51:18.782Z,18.77
2023-04-15T21:53:45.693Z,18.30
2023-04-15T21:56:12.384Z,17.35
2023-04-15T21:58:39.299Z,18.25
2023-04-15T22:01:06.339Z,16.42
2023-04-15T22:03:34.994Z,19.38
2023-04-15T22:06:02.955Z,18.40
2023-04-15T22:08:33.608Z,20.42
2023-04-15T22:11:05.532Z,17.73
2023-04-15T22:13:32.214Z,19.98
2023-04-15T22:16:01.368Z,18.55
2023-04-15T22:18:28.106Z,19.00
2023-04-15T22:20:54.892Z,18.33
2023-04-15T22:23:21.528Z,19.23
2023-04-15T22:25:48.294Z,19.98
2023-04-15T22:28:15.185Z,18.33
2023-04-15T22:30:42.550Z,21.92
2023-04-15T22:33:09.726Z,18.67
2023-04-15T22:35:37.383Z,19.42
2023-04-15T22:38:04.936Z,18.80
2023-04-15T22:40:32.834Z,18.30
2023-04-15T22:42:59.877Z,18.55
2023-04-15T22:45:26.800Z,20.35
2023-04-15T22:47:54.020Z,18.45
2023-04-15T22:50:20.823Z,18.92
2023-04-15T22:52:48.231Z,19.02
2023-04-15T22:55:15.521Z,19.20
2023-04-15T22:57:42.385Z,19.83
2023-04-15T23:00:09.810Z,20.05
2023-04-15T23:02:36.629Z,19.15
2023-04-15T23:05:12.470Z,19.85
2023-04-15T23:07:39.928Z,19.58
2023-04-15T23:10:08.477Z,24.77
2023-04-15T23:12:35.138Z,22.40
2023-04-15T23:15:02.736Z,22.65
2023-04-15T23:17:29.454Z,19.55
2023-04-15T23:19:56.106Z,21.73
2023-04-15T23:22:22.788Z,21.83
2023-04-15T23:24:49.406Z,20.33
2023-04-15T23:27:18.907Z,21.75
2023-04-15T23:29:46.058Z,21.05
2023-04-15T23:32:12.720Z,21.33
2023-04-15T23:34:39.558Z,22.95
2023-04-15T23:37:06.181Z,23.42
2023-04-15T23:39:33.147Z,24.15
2023-04-15T23:41:59.946Z,22.38
2023-04-15T23:44:27.206Z,23.25
2023-04-15T23:46:56.128Z,21.92
2023-04-15T23:49:22.891Z,22.38
2023-04-15T23:51:49.658Z,21.40
2023-04-15T23:54:16.295Z,22.63
2023-04-15T23:56:42.968Z,22.48
2023-04-15T23:59:09.900Z,26.20
